Dati Storici

Data ora Umidita' aria (%) Temperatura aria (°C) Rad globale (W/m²) Gonioanemometro (°) Tacoanemometro (m/s) Pioggia (mm)
04-07-2020 08:50 54.6 % 24.388 -81.121 0.952 0 0
04-07-2020 08:40 51.4 % 24.243 -71.787 0.992 0 0
04-07-2020 08:30 53.8 % 25.199 -38.965 1.252 0 0
04-07-2020 08:20 53.1 % 24.913 -76.665 2.034 0 0
04-07-2020 08:10 53.5 % 24.614 -80.592 3.507 0 0
04-07-2020 08:00 58.5 % 24.964 -66.214 1.078 0 0
04-07-2020 07:50 61.3 % 24.082 -81.467 2.376 0 0
04-07-2020 07:40 64.8 % 23.771 -33.647 0.844 0 0
04-07-2020 07:30 67.5 % 22.803 -81.14 1.534 0 0
04-07-2020 07:20 69.2 % 22.137 -72.44 2.871 0 0
04-07-2020 07:10 69.2 % 22 -81.882 1.293 0 0
04-07-2020 07:00 70.6 % 22.124 -80.406 0.583 0 0
04-07-2020 06:50 71 % 21.643 -81.062 2.44 0 0
04-07-2020 06:40 71.6 % 21.406 -79.19 2.811 0 0
04-07-2020 06:30 70.2 % 21.466 -79.209 1.514 0 0
04-07-2020 06:20 70 % 21.476 -74.147 -0.016 0 0
04-07-2020 06:10 70.6 % 21.207 -79.901 0.816 0 0
04-07-2020 06:00 71.7 % 21.133 -80.941 1.702 0 0
04-07-2020 05:50 72.3 % 20.939 -77.02 2.196 0 0
04-07-2020 05:40 73.9 % 20.67 -76.895 0.853 0 0

I dati sono presentati in modo automatico a scopo informativo. In seguito a verifica i dati possono subire modifiche o essere invalidati e non riportati negli archivi definitivi.